createdAt,value
2022-11-28T00:01:37.957Z,7.90
2022-11-28T00:04:08.269Z,7.20
2022-11-28T00:06:38.685Z,5.83
2022-11-28T00:09:07.378Z,9.30
2022-11-28T00:11:36.150Z,7.43
2022-11-28T00:14:03.994Z,8.23
2022-11-28T00:16:32.042Z,10.63
2022-11-28T00:19:02.096Z,8.47
2022-11-28T00:21:31.886Z,8.50
2022-11-28T00:24:00.855Z,8.00
2022-11-28T00:26:31.785Z,8.00
2022-11-28T00:29:03.409Z,6.53
2022-11-28T00:31:34.476Z,7.50
2022-11-28T00:34:03.246Z,7.00
2022-11-28T00:36:32.291Z,9.93
2022-11-28T00:39:00.046Z,7.03
2022-11-28T00:41:31.133Z,8.57
2022-11-28T00:43:58.916Z,6.37
2022-11-28T00:46:28.147Z,7.53
2022-11-28T00:48:57.891Z,8.23
2022-11-28T00:51:28.992Z,9.47
2022-11-28T00:54:01.107Z,7.77
2022-11-28T00:56:32.610Z,9.50
2022-11-28T00:59:00.806Z,7.37
2022-11-28T01:01:32.329Z,8.67
2022-11-28T01:04:03.239Z,7.43
2022-11-28T01:06:34.591Z,8.43
2022-11-28T01:09:06.546Z,7.43
2022-11-28T01:11:35.247Z,8.10
2022-11-28T01:14:03.685Z,9.03
2022-11-28T01:16:31.628Z,10.03
2022-11-28T01:18:59.687Z,7.50
2022-11-28T01:21:28.055Z,7.53
2022-11-28T01:23:56.296Z,7.70
2022-11-28T01:26:28.926Z,9.43
2022-11-28T01:28:57.384Z,8.40
2022-11-28T01:31:28.679Z,7.90
2022-11-28T01:33:57.418Z,8.77
2022-11-28T01:36:26.852Z,7.63
2022-11-28T01:38:54.854Z,8.20
2022-11-28T01:41:27.822Z,7.50
2022-11-28T01:44:02.442Z,8.27
2022-11-28T01:46:31.619Z,8.47
2022-11-28T01:49:09.352Z,7.63
2022-11-28T01:51:41.900Z,8.03
2022-11-28T01:54:09.668Z,8.57
2022-11-28T01:56:47.207Z,7.60
2022-11-28T01:59:16.138Z,11.13
2022-11-28T02:01:45.607Z,7.40
2022-11-28T02:04:14.291Z,7.77
2022-11-28T02:06:43.182Z,10.17
2022-11-28T02:09:14.482Z,10.10
2022-11-28T02:12:12.471Z,7.50
2022-11-28T02:15:08.993Z,7.27
2022-11-28T02:20:43.263Z,8.53
2022-11-28T02:23:20.728Z,7.90
2022-11-28T02:26:30.378Z,9.10
2022-11-28T02:29:51.271Z,8.30
2022-11-28T02:32:48.937Z,8.93
2022-11-28T02:35:21.527Z,7.00
2022-11-28T02:38:05.007Z,8.00
2022-11-28T02:40:39.451Z,8.20
2022-11-28T02:43:16.995Z,11.80
2022-11-28T02:45:57.857Z,8.80
2022-11-28T02:48:39.394Z,8.87
2022-11-28T02:51:15.028Z,9.07
2022-11-28T02:53:45.961Z,9.07
2022-11-28T02:56:14.536Z,9.40
2022-11-28T02:58:42.362Z,10.10
2022-11-28T03:01:19.479Z,8.57
2022-11-28T03:04:11.131Z,9.50
2022-11-28T03:06:53.024Z,7.67
2022-11-28T03:09:43.345Z,9.33
2022-11-28T03:12:24.866Z,7.83
2022-11-28T03:14:56.219Z,8.93
2022-11-28T03:17:41.003Z,10.30
2022-11-28T03:20:22.829Z,8.63
2022-11-28T03:23:13.396Z,8.90
2022-11-28T03:25:57.735Z,11.57
2022-11-28T03:28:32.590Z,7.67
2022-11-28T03:31:07.701Z,10.73
2022-11-28T03:33:42.530Z,8.90
2022-11-28T03:36:19.395Z,12.23
2022-11-28T03:38:55.193Z,10.07
2022-11-28T03:41:33.189Z,8.07
2022-11-28T03:44:06.882Z,9.07
2022-11-28T03:46:41.561Z,8.83
2022-11-28T03:49:15.749Z,11.87
2022-11-28T03:51:52.819Z,9.07
2022-11-28T03:54:28.745Z,10.40
2022-11-28T03:57:09.406Z,10.73
2022-11-28T03:59:42.654Z,11.00
2022-11-28T04:02:21.837Z,9.70
2022-11-28T04:05:00.683Z,10.17
2022-11-28T04:07:39.884Z,11.93
2022-11-28T04:10:17.696Z,11.50
2022-11-28T04:12:55.640Z,12.43
2022-11-28T04:15:33.288Z,11.27
2022-11-28T04:18:19.906Z,19.30
2022-11-28T04:20:53.533Z,23.97
2022-11-28T04:23:25.995Z,26.80
2022-11-28T04:26:01.688Z,33.23
2022-11-28T04:31:06.350Z,32.70
2022-11-28T04:33:39.725Z,34.67
2022-11-28T04:36:11.263Z,35.77
2022-11-28T04:38:44.798Z,34.80
2022-11-28T04:41:19.711Z,39.30
2022-11-28T04:43:58.929Z,32.88
2022-11-28T04:46:37.896Z,34.37
2022-11-28T04:49:06.321Z,36.27
2022-11-28T04:51:45.402Z,34.73
2022-11-28T04:54:24.628Z,41.03
2022-11-28T04:57:00.117Z,32.57
2022-11-28T04:59:32.426Z,38.75
2022-11-28T05:02:05.183Z,31.80
2022-11-28T05:04:36.630Z,33.27
2022-11-28T05:07:08.728Z,26.43
2022-11-28T05:09:38.381Z,38.03
2022-11-28T05:12:07.081Z,38.30
2022-11-28T05:14:34.928Z,45.37
2022-11-28T05:17:02.604Z,42.00
2022-11-28T05:19:30.401Z,50.80
2022-11-28T05:21:58.239Z,51.10
2022-11-28T05:24:31.984Z,39.30
2022-11-28T05:27:01.488Z,44.80
2022-11-28T05:29:29.243Z,48.87
2022-11-28T05:31:57.122Z,50.27
2022-11-28T05:34:24.903Z,48.40
2022-11-28T05:36:52.676Z,42.93
2022-11-28T05:39:20.452Z,45.57
2022-11-28T05:41:48.676Z,45.10
2022-11-28T05:44:19.102Z,47.30
2022-11-28T05:46:51.140Z,46.17
2022-11-28T05:49:21.506Z,48.80
2022-11-28T05:51:58.432Z,40.43
2022-11-28T05:54:27.512Z,37.77
2022-11-28T05:56:55.226Z,41.43
2022-11-28T05:59:24.338Z,42.63
2022-11-28T06:01:52.135Z,41.77
2022-11-28T06:04:19.887Z,48.70
2022-11-28T06:06:50.834Z,46.63
2022-11-28T06:09:23.232Z,41.63
2022-11-28T06:11:53.588Z,39.93
2022-11-28T06:14:21.382Z,45.87
2022-11-28T06:16:50.565Z,42.33
2022-11-28T06:19:18.428Z,46.33
2022-11-28T06:21:46.289Z,42.03
2022-11-28T06:24:13.955Z,39.20
2022-11-28T06:26:41.734Z,39.47
2022-11-28T06:29:09.564Z,46.30
2022-11-28T06:31:37.364Z,44.33
2022-11-28T06:34:06.595Z,45.10
2022-11-28T06:36:35.057Z,41.23
2022-11-28T06:39:02.843Z,40.77
2022-11-28T06:44:59.180Z,37.43
2022-11-28T06:47:26.901Z,38.57
2022-11-28T06:49:56.142Z,43.37
2022-11-28T06:52:24.232Z,50.87
2022-11-28T06:54:54.605Z,41.47
2022-11-28T06:57:22.583Z,32.53
2022-11-28T06:59:50.670Z,37.90
2022-11-28T07:02:18.546Z,36.67
2022-11-28T07:04:46.330Z,34.60
2022-11-28T07:07:16.817Z,33.13
2022-11-28T07:09:45.137Z,32.63
2022-11-28T07:12:13.938Z,33.10
2022-11-28T07:14:41.840Z,35.70
2022-11-28T07:17:09.710Z,32.73
2022-11-28T07:19:37.939Z,34.90
2022-11-28T07:22:05.661Z,34.90
2022-11-28T07:24:34.711Z,31.20
2022-11-28T07:27:02.468Z,27.00
2022-11-28T07:29:42.024Z,30.77
2022-11-28T07:32:13.898Z,32.57
2022-11-28T07:34:44.632Z,30.00
2022-11-28T07:37:16.055Z,32.97
2022-11-28T07:39:45.409Z,27.93
2022-11-28T07:42:13.319Z,32.23
2022-11-28T07:44:41.019Z,28.00
2022-11-28T07:47:08.790Z,40.27
2022-11-28T07:49:36.536Z,39.50
2022-11-28T07:52:04.564Z,39.77
2022-11-28T07:54:32.315Z,40.20
2022-11-28T07:57:16.676Z,40.57
2022-11-28T07:59:44.850Z,41.47
2022-11-28T08:02:13.188Z,32.73
2022-11-28T08:04:47.606Z,37.03
2022-11-28T08:07:17.458Z,37.47
2022-11-28T08:09:45.652Z,28.40
2022-11-28T08:12:14.963Z,33.13
2022-11-28T08:14:43.043Z,32.07
2022-11-28T08:17:12.984Z,34.70
2022-11-28T08:19:40.696Z,38.40
2022-11-28T08:22:08.437Z,28.43
2022-11-28T08:24:36.324Z,31.13
2022-11-28T08:27:07.259Z,34.80
2022-11-28T08:29:36.462Z,28.90
2022-11-28T08:32:04.482Z,34.10
2022-11-28T08:34:32.225Z,28.27
2022-11-28T08:37:00.572Z,36.73
2022-11-28T08:39:28.395Z,35.63
2022-11-28T08:41:57.653Z,30.97
2022-11-28T08:44:26.649Z,32.67
2022-11-28T08:46:56.094Z,30.47
2022-11-28T08:49:23.873Z,35.50
2022-11-28T08:51:51.878Z,31.87
2022-11-28T08:54:20.765Z,28.67
2022-11-28T08:56:48.489Z,28.97
2022-11-28T08:59:16.245Z,29.33
2022-11-28T09:01:44.026Z,31.93
2022-11-28T09:04:13.154Z,32.00
2022-11-28T09:06:41.095Z,32.53
2022-11-28T09:09:09.049Z,33.90
2022-11-28T09:11:38.254Z,32.23
2022-11-28T09:14:07.259Z,30.00
2022-11-28T09:16:35.190Z,30.77
2022-11-28T09:19:03.166Z,28.50
2022-11-28T09:21:32.887Z,29.77
2022-11-28T09:24:00.672Z,31.70
2022-11-28T09:26:29.850Z,33.73
2022-11-28T09:28:57.647Z,32.43
2022-11-28T09:31:25.808Z,35.50
2022-11-28T09:33:54.041Z,31.67
2022-11-28T09:36:24.695Z,30.00
2022-11-28T09:38:53.793Z,35.37
2022-11-28T09:41:49.875Z,30.43
2022-11-28T09:46:21.766Z,35.53
2022-11-28T09:49:02.933Z,35.50
2022-11-28T09:51:49.768Z,33.83
2022-11-28T09:54:29.490Z,29.98
2022-11-28T09:56:59.446Z,31.67
2022-11-28T09:59:30.604Z,29.43
2022-11-28T10:02:18.878Z,32.43
2022-11-28T10:05:01.412Z,34.67
2022-11-28T10:07:52.222Z,28.53
2022-11-28T10:10:42.345Z,21.07
2022-11-28T10:13:20.443Z,29.00
2022-11-28T10:16:01.929Z,31.23
2022-11-28T10:18:40.415Z,29.03
2022-11-28T10:21:24.725Z,35.27
2022-11-28T10:23:59.123Z,31.33
2022-11-28T10:26:36.091Z,31.37
2022-11-28T10:29:21.267Z,30.67
2022-11-28T10:31:55.097Z,31.55
2022-11-28T10:34:30.867Z,31.93
2022-11-28T10:37:06.279Z,30.93
2022-11-28T10:39:44.666Z,27.42
2022-11-28T10:42:22.123Z,25.57
2022-11-28T10:45:08.498Z,27.37
2022-11-28T10:48:07.423Z,26.03
2022-11-28T10:51:02.037Z,25.40
2022-11-28T10:53:43.933Z,29.63
2022-11-28T10:56:29.807Z,27.13
2022-11-28T10:59:11.627Z,30.80
2022-11-28T11:01:44.725Z,27.30
2022-11-28T11:04:21.780Z,23.87
2022-11-28T11:07:14.884Z,27.47
2022-11-28T11:09:46.847Z,26.42
2022-11-28T11:12:23.148Z,28.23
2022-11-28T11:14:52.546Z,30.67
2022-11-28T11:17:36.293Z,26.53
2022-11-28T11:20:27.873Z,28.77
2022-11-28T11:22:58.657Z,30.53
2022-11-28T11:25:29.677Z,28.60
2022-11-28T11:28:01.697Z,32.10
2022-11-28T11:30:35.853Z,34.63
2022-11-28T11:33:06.983Z,29.03
2022-11-28T11:35:42.758Z,31.77
2022-11-28T11:38:30.308Z,32.43
2022-11-28T11:41:27.620Z,31.23
2022-11-28T11:43:56.614Z,28.77
2022-11-28T11:46:25.666Z,31.10
2022-11-28T11:48:54.436Z,28.37
2022-11-28T11:51:26.784Z,28.37
2022-11-28T11:54:04.644Z,32.63
2022-11-28T11:56:38.332Z,32.07
2022-11-28T11:59:16.051Z,33.63
2022-11-28T12:01:51.434Z,31.67
2022-11-28T12:04:45.121Z,35.08
2022-11-28T12:07:26.979Z,36.70
2022-11-28T12:10:03.079Z,35.20
2022-11-28T12:12:37.121Z,33.70
2022-11-28T12:15:17.639Z,36.40
2022-11-28T12:18:06.371Z,34.17
2022-11-28T12:20:53.219Z,36.90
2022-11-28T12:23:52.976Z,31.37
2022-11-28T12:26:34.258Z,41.13
2022-11-28T12:29:21.925Z,38.73
2022-11-28T12:32:03.810Z,42.00
2022-11-28T12:34:54.531Z,40.67
2022-11-28T12:38:09.044Z,41.73
2022-11-28T12:40:37.946Z,38.93
2022-11-28T12:43:30.580Z,50.40
2022-11-28T12:46:10.468Z,39.90
2022-11-28T12:49:03.280Z,42.70
2022-11-28T12:51:50.117Z,52.83
2022-11-28T12:54:34.668Z,44.60
2022-11-28T12:57:16.773Z,50.07
2022-11-28T12:59:57.241Z,51.17
2022-11-28T13:02:38.824Z,55.33
2022-11-28T13:05:25.659Z,57.43
2022-11-28T13:08:21.979Z,44.93
2022-11-28T13:11:04.292Z,47.60
2022-11-28T13:13:41.531Z,45.33
2022-11-28T13:16:27.184Z,49.00
2022-11-28T13:19:04.490Z,50.78
2022-11-28T13:21:44.990Z,41.80
2022-11-28T13:24:33.283Z,36.13
2022-11-28T13:27:16.062Z,44.87
2022-11-28T13:29:57.407Z,54.00
2022-11-28T13:32:35.348Z,52.70
2022-11-28T13:35:05.277Z,49.63
2022-11-28T13:40:43.110Z,41.97
2022-11-28T13:43:24.248Z,46.33
2022-11-28T13:45:53.479Z,50.63
2022-11-28T13:49:14.461Z,50.17
2022-11-28T13:51:43.205Z,49.03
2022-11-28T13:54:41.065Z,58.17
2022-11-28T13:57:21.895Z,52.03
2022-11-28T13:59:59.565Z,52.07
2022-11-28T14:02:41.864Z,54.30
2022-11-28T14:05:31.664Z,52.23
2022-11-28T14:08:00.859Z,55.57
2022-11-28T14:11:02.617Z,63.07
2022-11-28T14:13:57.979Z,60.23
2022-11-28T14:16:51.791Z,55.13
2022-11-28T14:19:42.139Z,57.83
2022-11-28T14:22:34.162Z,50.60
2022-11-28T14:25:17.227Z,56.10
2022-11-28T14:27:59.371Z,43.20
2022-11-28T14:30:35.288Z,55.93
2022-11-28T14:33:15.840Z,54.73
2022-11-28T14:36:29.478Z,70.80
2022-11-28T14:39:32.538Z,69.30
2022-11-28T14:45:44.438Z,60.07
2022-11-28T14:48:29.930Z,77.80
2022-11-28T14:51:02.170Z,55.83
2022-11-28T14:53:45.479Z,74.93
2022-11-28T14:56:25.886Z,70.87
2022-11-28T14:59:00.875Z,66.23
2022-11-28T15:01:55.376Z,60.53
2022-11-28T15:04:57.607Z,78.53
2022-11-28T15:07:41.639Z,67.60
2022-11-28T15:10:23.566Z,77.37
2022-11-28T15:13:13.133Z,70.33
2022-11-28T15:15:48.659Z,79.63
2022-11-28T15:20:55.316Z,86.67
2022-11-28T15:23:29.313Z,86.87
2022-11-28T15:26:00.114Z,74.37
2022-11-28T15:28:32.127Z,91.83
2022-11-28T15:31:06.748Z,83.07
2022-11-28T15:33:35.957Z,85.77
2022-11-28T15:36:20.759Z,112.03
2022-11-28T15:38:48.678Z,101.07
2022-11-28T15:41:22.406Z,104.00
2022-11-28T15:43:51.936Z,102.13
2022-11-28T15:46:28.939Z,86.80
2022-11-28T15:48:58.287Z,109.70
2022-11-28T15:51:30.133Z,102.60
2022-11-28T15:53:59.877Z,99.10
2022-11-28T15:56:27.694Z,89.27
2022-11-28T15:58:55.793Z,91.07
2022-11-28T16:01:25.980Z,102.10
2022-11-28T16:04:02.083Z,88.77
2022-11-28T16:06:34.042Z,109.03
2022-11-28T16:09:05.701Z,102.20
2022-11-28T16:11:36.280Z,96.10
2022-11-28T16:14:09.917Z,89.40
2022-11-28T16:16:39.630Z,82.10
2022-11-28T16:19:24.676Z,100.13
2022-11-28T16:21:56.846Z,112.30
2022-11-28T16:24:31.114Z,127.20
2022-11-28T16:27:04.285Z,114.60
2022-11-28T16:29:35.506Z,122.90
2022-11-28T16:32:08.264Z,112.97
2022-11-28T16:34:48.837Z,114.00
2022-11-28T16:37:23.160Z,190.73
2022-11-28T16:40:04.828Z,102.10
2022-11-28T16:42:34.952Z,134.27
2022-11-28T16:45:15.524Z,111.40
2022-11-28T16:47:45.495Z,140.77
2022-11-28T16:50:21.650Z,133.80
2022-11-28T16:52:53.123Z,115.83
2022-11-28T16:55:44.151Z,156.40
2022-11-28T16:58:17.016Z,148.47
2022-11-28T17:00:56.404Z,124.37
2022-11-28T17:03:47.295Z,147.80
2022-11-28T17:06:21.467Z,151.23
2022-11-28T17:08:49.805Z,164.23
2022-11-28T17:11:22.829Z,129.57
2022-11-28T17:13:51.752Z,189.83
2022-11-28T17:16:22.659Z,169.93
2022-11-28T17:18:51.098Z,182.97
2022-11-28T17:21:33.024Z,186.13
2022-11-28T17:24:01.676Z,239.33
2022-11-28T17:26:29.590Z,294.57
2022-11-28T17:28:57.946Z,237.13
2022-11-28T17:31:25.742Z,258.23
2022-11-28T17:33:53.500Z,262.63
2022-11-28T17:36:22.631Z,419.93
2022-11-28T17:38:50.319Z,331.87
2022-11-28T17:41:18.221Z,395.83
2022-11-28T17:43:45.915Z,345.87
2022-11-28T17:46:14.450Z,287.13
2022-11-28T17:48:42.261Z,371.57
2022-11-28T17:51:10.685Z,584.60
2022-11-28T17:53:39.891Z,269.87
2022-11-28T17:56:11.487Z,557.47
2022-11-28T17:58:40.220Z,652.83
2022-11-28T18:01:11.069Z,671.73
2022-11-28T18:03:39.823Z,599.27
2022-11-28T18:06:16.463Z,650.97
2022-11-28T18:08:48.984Z,522.43
2022-11-28T18:11:19.149Z,761.37
2022-11-28T18:13:47.378Z,721.73
2022-11-28T18:16:19.539Z,351.57
2022-11-28T18:18:47.868Z,745.03
2022-11-28T18:21:17.106Z,649.10
2022-11-28T18:23:52.146Z,704.20
2022-11-28T18:26:23.868Z,678.67
2022-11-28T18:28:53.431Z,746.10
2022-11-28T18:31:24.829Z,716.93
2022-11-28T18:33:58.737Z,737.60
2022-11-28T18:36:32.615Z,728.47
2022-11-28T18:39:05.501Z,720.53
2022-11-28T18:41:33.783Z,714.30
2022-11-28T18:44:04.760Z,410.73
2022-11-28T18:46:34.349Z,734.13
2022-11-28T18:49:03.164Z,791.13
2022-11-28T18:51:34.486Z,745.33
2022-11-28T18:54:05.785Z,897.57
2022-11-28T18:56:36.036Z,748.40
2022-11-28T18:59:04.237Z,830.30
2022-11-28T19:01:35.196Z,725.40
2022-11-28T19:04:09.280Z,757.03
2022-11-28T19:06:39.684Z,704.37
2022-11-28T19:09:13.422Z,664.27
2022-11-28T19:11:43.019Z,731.03
2022-11-28T19:14:16.343Z,734.47
2022-11-28T19:16:45.250Z,684.47
2022-11-28T19:19:17.339Z,687.93
2022-11-28T19:21:45.398Z,771.83
2022-11-28T19:24:15.454Z,747.83
2022-11-28T19:26:43.723Z,678.10
2022-11-28T19:29:12.979Z,751.83
2022-11-28T19:31:42.227Z,736.77
2022-11-28T19:34:13.832Z,510.47
2022-11-28T19:36:45.859Z,345.77
2022-11-28T19:39:19.017Z,709.57
2022-11-28T19:41:47.309Z,802.73
2022-11-28T19:44:16.112Z,764.83
2022-11-28T19:46:44.258Z,366.50
2022-11-28T19:49:17.932Z,804.10
2022-11-28T19:51:48.002Z,757.67
2022-11-28T19:54:19.643Z,825.43
2022-11-28T19:56:48.296Z,793.80
2022-11-28T19:59:16.714Z,790.90
2022-11-28T20:01:45.326Z,775.77
2022-11-28T20:04:14.207Z,710.93
2022-11-28T20:06:42.089Z,747.13
2022-11-28T20:09:13.027Z,772.53
2022-11-28T20:11:45.568Z,608.47
2022-11-28T20:14:17.038Z,835.60
2022-11-28T20:16:46.187Z,598.83
2022-11-28T20:19:15.719Z,782.40
2022-11-28T20:21:46.354Z,814.23
2022-11-28T20:24:16.039Z,576.87
2022-11-28T20:26:47.448Z,460.03
2022-11-28T20:29:18.062Z,651.77
2022-11-28T20:31:47.772Z,699.70
2022-11-28T20:34:18.966Z,670.40
2022-11-28T20:36:51.939Z,446.83
2022-11-28T20:39:35.254Z,685.23
2022-11-28T20:42:04.985Z,706.50
2022-11-28T20:44:32.863Z,523.37
2022-11-28T20:47:00.829Z,751.77
2022-11-28T20:49:28.704Z,837.33
2022-11-28T20:51:56.688Z,316.97
2022-11-28T20:54:25.917Z,812.50
2022-11-28T20:59:43.218Z,621.93
2022-11-28T21:02:11.617Z,679.77
2022-11-28T21:04:39.388Z,361.60
2022-11-28T21:07:07.128Z,431.97
2022-11-28T21:09:34.811Z,796.77
2022-11-28T21:12:02.534Z,735.57
2022-11-28T21:14:30.476Z,735.37
2022-11-28T21:16:59.666Z,718.73
2022-11-28T21:19:27.382Z,697.90
2022-11-28T21:21:55.271Z,576.60
2022-11-28T21:24:23.012Z,287.07
2022-11-28T21:26:53.844Z,769.53
2022-11-28T21:29:23.843Z,736.50
2022-11-28T21:31:52.920Z,678.27
2022-11-28T21:34:22.773Z,534.90
2022-11-28T21:36:50.634Z,802.97
2022-11-28T21:39:20.822Z,733.07
2022-11-28T21:41:48.828Z,559.23
2022-11-28T21:44:16.680Z,540.43
2022-11-28T21:46:44.714Z,423.37
2022-11-28T21:49:13.774Z,432.07
2022-11-28T21:51:42.851Z,630.37
2022-11-28T21:54:11.679Z,658.27
2022-11-28T21:56:39.788Z,690.43
2022-11-28T21:59:07.929Z,536.43
2022-11-28T22:01:36.079Z,708.63
2022-11-28T22:04:05.014Z,606.27
2022-11-28T22:06:33.468Z,680.00
2022-11-28T22:09:09.102Z,601.80
2022-11-28T22:11:39.174Z,627.90
2022-11-28T22:14:07.415Z,421.37
2022-11-28T22:16:35.405Z,308.30
2022-11-28T22:19:05.016Z,671.77
2022-11-28T22:21:53.199Z,612.30
2022-11-28T22:24:23.983Z,725.33
2022-11-28T22:26:53.270Z,341.03
2022-11-28T22:29:21.092Z,401.97
2022-11-28T22:31:50.033Z,402.90
2022-11-28T22:34:19.081Z,478.53
2022-11-28T22:36:46.895Z,636.60
2022-11-28T22:39:15.362Z,719.93
2022-11-28T22:41:44.547Z,384.33
2022-11-28T22:44:12.380Z,560.87
2022-11-28T22:46:40.091Z,521.13
2022-11-28T22:49:10.486Z,293.37
2022-11-28T22:51:40.182Z,265.43
2022-11-28T22:54:12.531Z,353.87
2022-11-28T22:56:40.884Z,458.57
2022-11-28T22:59:13.897Z,554.40
2022-11-28T23:01:43.388Z,425.10
2022-11-28T23:04:11.670Z,528.03
2022-11-28T23:06:40.346Z,402.63
2022-11-28T23:09:11.828Z,315.23
2022-11-28T23:11:40.245Z,472.33
2022-11-28T23:14:14.149Z,542.43
2022-11-28T23:16:45.159Z,525.67
2022-11-28T23:19:17.213Z,209.90
2022-11-28T23:21:48.337Z,226.93
2022-11-28T23:24:20.736Z,301.93
2022-11-28T23:26:52.436Z,342.27
2022-11-28T23:29:21.658Z,318.57
2022-11-28T23:31:50.426Z,417.17
2022-11-28T23:34:18.480Z,422.83
2022-11-28T23:36:47.159Z,260.00
2022-11-28T23:39:17.538Z,714.30
2022-11-28T23:41:47.428Z,726.33
2022-11-28T23:44:17.543Z,486.37
2022-11-28T23:46:48.227Z,684.30
2022-11-28T23:49:16.271Z,516.93
2022-11-28T23:51:44.112Z,686.03
2022-11-28T23:54:12.828Z,639.40
2022-11-28T23:56:42.312Z,593.27
2022-11-28T23:59:12.616Z,673.73
